Time;durP1;ratioP1;P1;durP2;ratioP2;P2;SDS_P1;SDS_P2;PMS_P1;PMS_P2;Temp;Humidity;BMP_temperature;BMP_pressure;BME280_temperature;BME280_humidity;BME280_pressure;Samples;Min_cycle;Max_cycle;Signal;HPM_P1;HPM_P2
2022/01/30 00:00:32;;;;;;;22.35;4.75;;;;;;;10.83;55.62;102556.16;4895192;29;20506;-70
2022/01/30 00:03:06;;;;;;;23.67;5.47;;;;;;;10.78;55.44;102556.38;4910895;29;20066;-70
2022/01/30 00:05:34;;;;;;;23.45;5.03;;;;;;;10.76;55.67;102557.38;4912035;29;20057;-70
2022/01/30 00:08:01;;;;;;;22.45;5.65;;;;;;;10.73;55.58;102558.38;4911899;29;20047;-70
2022/01/30 00:10:30;;;;;;;26.05;5.68;;;;;;;10.71;55.67;102556.72;4911781;29;20055;-70
2022/01/30 00:13:00;;;;;;;20.88;5.82;;;;;;;10.68;55.57;102555.03;4911993;29;20044;-70
2022/01/30 00:15:50;;;;;;;23.35;5.07;;;;;;;10.64;55.62;102552.53;4911759;29;20052;-70
2022/01/30 00:20:48;;;;;;;22.08;5.40;;;;;;;10.58;55.59;102551.00;4910539;29;20102;-70
2022/01/30 00:23:24;;;;;;;19.80;5.10;;;;;;;10.57;55.81;102548.38;4910400;29;20111;-70
2022/01/30 00:25:53;;;;;;;;;;;;;;;10.52;55.71;102545.03;4910802;29;20036;-71
2022/01/30 00:28:22;;;;;;;24.77;5.03;;;;;;;10.53;55.64;102566.44;4911462;29;19927;-70
2022/01/30 00:30:49;;;;;;;22.35;4.63;;;;;;;10.47;55.58;102558.66;4911512;29;20048;-70
2022/01/30 00:33:18;;;;;;;23.88;5.43;;;;;;;10.43;55.79;102567.78;4912273;28;20055;-70
2022/01/30 00:35:48;;;;;;;29.10;5.53;;;;;;;10.39;55.84;102566.13;4913390;29;20090;-70
2022/01/30 00:38:16;;;;;;;28.85;5.10;;;;;;;10.36;55.68;102556.41;4913125;29;20041;-69
2022/01/30 00:40:43;;;;;;;23.05;5.75;;;;;;;10.34;55.85;102560.97;4913407;29;20056;-69
2022/01/30 00:43:14;;;;;;;22.23;5.22;;;;;;;10.34;56.01;102562.78;4914959;29;20075;-70
2022/01/30 00:45:42;;;;;;;27.25;6.18;;;;;;;10.32;56.02;102564.66;4915141;29;20482;-70
2022/01/30 00:48:09;;;;;;;25.65;5.07;;;;;;;10.31;55.92;102574.53;4914093;29;20124;-70
2022/01/30 00:50:36;;;;;;;22.10;5.72;;;;;;;10.30;55.84;102572.78;4913489;29;20410;-70
2022/01/30 00:53:07;;;;;;;24.63;6.60;;;;;;;10.27;56.06;102575.59;4914841;29;20573;-71
2022/01/30 00:55:35;;;;;;;20.50;5.32;;;;;;;10.26;55.91;102575.66;4912949;29;20056;-70
2022/01/30 00:58:02;;;;;;;23.55;5.00;;;;;;;10.22;55.86;102577.59;4914461;29;20502;-70
2022/01/30 01:00:30;;;;;;;26.13;5.35;;;;;;;10.22;55.98;102580.28;4913302;29;20048;-71
2022/01/30 01:03:02;;;;;;;21.85;5.32;;;;;;;10.19;55.95;102586.63;4912636;29;20408;-72
2022/01/30 01:05:31;;;;;;;27.65;5.45;;;;;;;10.17;56.07;102593.88;4895606;29;20048;-70
2022/01/30 01:08:02;;;;;;;18.73;5.35;;;;;;;10.16;55.95;102599.31;4910325;29;20091;-69
2022/01/30 01:10:35;;;;;;;20.83;5.30;;;;;;;10.14;56.15;102595.81;4896087;29;20414;-69
2022/01/30 01:23:57;;;;;;;25.73;6.68;;;;;;;9.99;56.09;102586.56;4894318;29;20071;-69
2022/01/30 01:26:25;;;;;;;24.23;5.00;;;;;;;9.97;56.07;102593.81;4909625;29;20494;-70
2022/01/30 01:28:52;;;;;;;27.50;5.50;;;;;;;9.95;56.35;102590.31;4922074;29;20379;-70
2022/01/30 01:31:20;;;;;;;25.17;5.20;;;;;;;9.94;56.48;102591.25;4914094;29;20192;-70
2022/01/30 01:36:47;;;;;;;22.10;4.53;;;;;;;9.96;56.38;102596.56;4917263;29;20143;-70
2022/01/30 01:39:14;;;;;;;26.17;6.05;;;;;;;9.96;56.30;102591.19;4912567;29;20297;-70
2022/01/30 01:41:41;;;;;;;19.98;5.22;;;;;;;9.97;56.62;102590.25;4914061;29;20067;-70
2022/01/30 01:44:21;;;;;;;25.55;4.95;;;;;;;9.96;56.41;102596.56;4928101;29;20045;-70
2022/01/30 01:46:48;;;;;;;26.83;4.95;;;;;;;9.96;56.33;102594.75;4914144;29;20079;-70
2022/01/30 01:49:21;;;;;;;23.55;5.05;;;;;;;9.93;56.16;102600.25;4928347;29;20044;-70
2022/01/30 01:52:01;;;;;;;20.00;5.35;;;;;;;9.91;56.30;102599.44;4912618;29;20063;-70
2022/01/30 01:54:32;;;;;;;28.50;6.20;;;;;;;9.89;56.21;102598.63;4928718;29;20095;-69
2022/01/30 01:56:59;;;;;;;23.55;5.38;;;;;;;9.85;56.03;102591.63;4912367;29;20075;-69
2022/01/30 01:59:35;;;;;;;20.75;5.32;;;;;;;9.81;56.35;102585.50;4913594;29;20048;-70
2022/01/30 02:02:36;;;;;;;19.73;4.95;;;;;;;9.80;56.25;102593.63;4913370;29;20126;-70
2022/01/30 02:05:05;;;;;;;24.17;5.22;;;;;;;9.78;56.27;102592.81;4912597;29;20461;-70
2022/01/30 02:10:02;;;;;;;21.42;4.10;;;;;;;9.75;56.28;102598.31;4927830;29;20581;-70
2022/01/30 02:12:38;;;;;;;21.90;5.20;;;;;;;9.73;56.38;102600.16;4924082;29;20041;-70
2022/01/30 02:15:31;;;;;;;16.42;4.18;;;;;;;9.71;56.31;102588.63;4909252;29;20047;-70
2022/01/30 02:26:17;;;;;;;28.10;5.10;;;;;;;9.61;56.30;102589.91;4927886;29;20048;-70
2022/01/30 02:28:43;;;;;;;26.08;4.65;;;;;;;9.58;56.44;102588.22;4911674;29;20048;-70
2022/01/30 02:31:14;;;;;;;22.88;4.32;;;;;;;9.56;56.29;102587.38;4912109;29;20502;-71
2022/01/30 02:33:44;;;;;;;19.88;5.05;;;;;;;9.55;56.36;102583.84;4912162;28;20056;-70
2022/01/30 02:36:11;;;;;;;24.27;4.47;;;;;;;9.51;56.48;102584.88;4911635;29;20578;-69
2022/01/30 02:39:03;;;;;;;19.88;5.63;;;;;;;9.50;56.42;102582.25;4907663;28;20041;-70
2022/01/30 02:41:35;;;;;;;20.15;4.38;;;;;;;9.48;56.51;102582.31;4876550;29;20047;-70
2022/01/30 02:44:17;;;;;;;26.95;4.68;;;;;;;9.47;56.62;102585.94;4908881;29;20498;-70
2022/01/30 02:46:47;;;;;;;20.23;4.68;;;;;;;9.48;56.55;102586.81;4892993;29;20041;-71
2022/01/30 02:52:04;;;;;;;26.70;5.25;;;;;;;9.47;56.75;102588.63;4897200;29;20048;-71
2022/01/30 02:54:32;;;;;;;20.52;4.60;;;;;;;9.47;56.74;102599.34;4911519;29;20048;-71
2022/01/30 02:56:59;;;;;;;19.05;4.43;;;;;;;9.46;56.64;102608.34;4910679;29;20048;-71
2022/01/30 02:59:27;;;;;;;18.10;4.47;;;;;;;9.47;56.66;102610.09;4911433;29;20492;-71
2022/01/30 03:01:53;;;;;;;23.50;4.93;;;;;;;9.47;56.71;102615.44;4911545;29;20130;-71
2022/01/30 03:04:24;;;;;;;21.67;4.53;;;;;;;9.46;56.87;102611.00;4912815;29;20143;-71
2022/01/30 03:06:51;;;;;;;22.20;4.75;;;;;;;9.47;56.73;102614.56;4911539;29;20052;-71
2022/01/30 03:09:33;;;;;;;16.02;4.30;;;;;;;9.47;56.88;102620.81;4926806;29;20486;-71
2022/01/30 03:12:00;;;;;;;13.43;4.18;;;;;;;9.47;56.79;102634.22;4910775;28;20048;-71
2022/01/30 03:14:31;;;;;;;19.73;4.82;;;;;;;9.47;56.79;102631.53;4989921;28;20145;-72
2022/01/30 03:16:58;;;;;;;25.17;4.97;;;;;;;9.48;56.81;102630.59;4897250;28;20182;-71
2022/01/30 03:19:25;;;;;;;21.55;4.07;;;;;;;9.49;56.66;102645.75;4911771;29;20044;-71
2022/01/30 03:21:52;;;;;;;27.35;5.15;;;;;;;9.46;56.80;102643.19;4910582;29;20044;-70
2022/01/30 03:24:19;;;;;;;25.52;5.15;;;;;;;9.43;56.51;102648.69;4910323;29;20067;-71
2022/01/30 03:26:46;;;;;;;21.52;4.68;;;;;;;9.40;56.70;102664.00;4910476;29;20135;-70
2022/01/30 03:29:26;;;;;;;20.88;4.60;;;;;;;9.36;56.73;102671.28;4926603;28;20074;-70
2022/01/30 03:31:53;;;;;;;21.30;5.03;;;;;;;9.34;56.80;102680.31;4911059;28;20037;-71
2022/01/30 03:34:21;;;;;;;18.70;4.05;;;;;;;9.33;56.85;102679.44;4926784;28;20140;-71
2022/01/30 03:36:50;;;;;;;21.55;4.30;;;;;;;9.32;56.83;102682.19;4911895;29;20032;-70
2022/01/30 03:39:17;;;;;;;20.70;5.28;;;;;;;9.33;56.79;102683.94;4910572;28;20052;-70
2022/01/30 03:41:44;;;;;;;29.55;6.07;;;;;;;9.33;56.85;102683.94;4910500;29;20051;-69
2022/01/30 03:44:14;;;;;;;25.00;5.18;;;;;;;9.34;56.87;102693.72;4910734;29;20143;-70
2022/01/30 03:46:41;;;;;;;20.63;5.32;;;;;;;9.36;56.95;102699.91;4926593;28;20502;-69
2022/01/30 03:49:23;;;;;;;20.60;4.95;;;;;;;9.36;56.90;102695.41;4911949;29;20345;-70
2022/01/30 03:51:50;;;;;;;22.35;5.05;;;;;;;9.37;57.16;102702.53;4926439;28;20040;-70
2022/01/30 03:54:25;;;;;;;22.02;4.20;;;;;;;9.39;56.95;102702.47;4928206;28;20106;-70
2022/01/30 03:56:52;;;;;;;14.65;4.47;;;;;;;9.39;57.20;102705.16;4908995;28;20098;-70
2022/01/30 03:59:24;;;;;;;19.85;4.93;;;;;;;9.39;56.90;102716.75;4909617;29;20582;-70
2022/01/30 04:01:51;;;;;;;20.33;4.28;;;;;;;9.38;56.66;102711.44;4911136;29;20071;-70
2022/01/30 04:04:24;;;;;;;21.58;4.60;;;;;;;9.35;56.83;102701.72;4911348;29;20078;-70
2022/01/30 04:06:51;;;;;;;23.02;5.22;;;;;;;9.34;56.96;102705.31;4926511;29;20071;-70
2022/01/30 04:09:51;;;;;;;20.10;4.05;;;;;;;9.34;57.00;102708.00;4914183;29;20032;-70
2022/01/30 04:12:26;;;;;;;15.05;3.92;;;;;;;9.34;56.88;102708.00;4930191;28;20071;-69
2022/01/30 04:15:13;;;;;;;21.35;4.22;;;;;;;9.32;56.85;102703.63;4913957;28;20498;-70
2022/01/30 04:18:12;;;;;;;21.30;5.07;;;;;;;9.29;56.95;102701.94;4903305;29;20059;-70
2022/01/30 04:20:59;;;;;;;16.35;4.40;;;;;;;9.26;56.78;102709.22;4915978;29;20048;-69
2022/01/30 04:23:48;;;;;;;21.95;4.40;;;;;;;9.22;56.85;102711.13;4915579;29;20438;-70
2022/01/30 04:26:44;;;;;;;16.80;3.65;;;;;;;9.18;56.84;102712.16;4910251;29;20059;-71
2022/01/30 04:29:34;;;;;;;18.70;3.47;;;;;;;9.17;56.88;102710.41;4924683;28;20584;-70
2022/01/30 04:32:15;;;;;;;19.05;4.22;;;;;;;9.13;56.65;102712.34;4929582;29;20166;-70
2022/01/30 04:35:11;;;;;;;15.68;3.72;;;;;;;9.11;56.65;102707.97;4914641;28;20044;-70
2022/01/30 04:38:06;;;;;;;18.35;4.18;;;;;;;9.06;56.71;102709.94;4914774;29;20186;-69
2022/01/30 04:41:25;;;;;;;17.55;3.83;;;;;;;9.03;56.59;102716.28;4942025;28;20087;-69
2022/01/30 05:08:13;;;;;;;14.80;2.88;;;;;;;8.71;56.61;102727.19;4910343;29;20059;-69
2022/01/30 05:10:44;;;;;;;13.48;3.20;;;;;;;8.68;56.47;102735.31;4912973;29;20103;-70
2022/01/30 05:13:31;;;;;;;15.77;2.80;;;;;;;8.65;56.48;102738.09;4913428;29;20560;-70
2022/01/30 05:16:19;;;;;;;12.85;2.67;;;;;;;8.64;56.62;102741.69;4913056;29;20542;-70
2022/01/30 05:19:21;;;;;;;7.63;2.30;;;;;;;8.63;56.49;102742.63;4908687;29;20045;-70
2022/01/30 05:21:54;;;;;;;19.20;2.90;;;;;;;8.62;56.56;102743.56;4914871;29;20082;-70
2022/01/30 05:24:46;;;;;;;9.30;3.30;;;;;;;8.59;56.57;102739.16;4928924;29;20056;-70
2022/01/30 05:27:22;;;;;;;7.72;2.60;;;;;;;8.58;56.43;102743.66;4914109;29;20106;-70
2022/01/30 05:30:14;;;;;;;12.30;2.92;;;;;;;8.58;56.49;102742.78;4914154;29;20044;-70
2022/01/30 05:32:55;;;;;;;12.90;2.42;;;;;;;8.59;56.60;102749.88;4912861;29;20044;-70
2022/01/30 05:35:42;;;;;;;18.33;3.13;;;;;;;8.60;56.66;102751.63;4913887;29;20139;-70
2022/01/30 05:38:22;;;;;;;11.70;2.50;;;;;;;8.58;56.51;102749.00;4912686;29;20106;-71
2022/01/30 05:41:15;;;;;;;13.55;2.90;;;;;;;8.58;56.45;102748.13;4898671;29;20147;-70
2022/01/30 05:44:12;;;;;;;13.65;2.53;;;;;;;8.56;56.49;102756.22;4904219;29;20505;-70
2022/01/30 05:46:56;;;;;;;19.30;3.05;;;;;;;8.54;56.48;102760.75;4912839;29;20048;-70
2022/01/30 05:49:27;;;;;;;15.60;2.53;;;;;;;8.49;56.42;102762.69;4913633;29;20132;-70
2022/01/30 05:52:12;;;;;;;15.27;3.33;;;;;;;8.46;56.43;102767.28;4913205;29;20055;-70
2022/01/30 05:54:55;;;;;;;14.85;2.63;;;;;;;8.45;56.47;102760.16;4912574;29;20052;-70
2022/01/30 05:57:21;;;;;;;8.60;2.53;;;;;;;8.42;56.43;102761.13;4912410;29;20048;-71
2022/01/30 05:59:51;;;;;;;8.45;2.47;;;;;;;8.41;56.49;102756.72;4912462;29;20047;-70
2022/01/30 06:02:37;;;;;;;13.68;2.80;;;;;;;8.41;56.41;102762.06;4913700;29;20422;-70
2022/01/30 06:05:05;;;;;;;11.20;3.20;;;;;;;8.38;56.40;102769.31;4913660;29;20113;-70
2022/01/30 06:07:32;;;;;;;9.20;2.53;;;;;;;8.34;56.38;102771.22;4927485;29;20044;-71
2022/01/30 06:09:59;;;;;;;12.57;2.92;;;;;;;8.29;56.35;102768.63;4927924;29;20044;-70
2022/01/30 06:12:26;;;;;;;12.90;2.58;;;;;;;8.24;56.40;102767.03;4912219;29;20080;-70
2022/01/30 06:14:52;;;;;;;15.85;3.05;;;;;;;8.21;56.42;102770.69;4928146;29;20414;-71
2022/01/30 06:17:21;;;;;;;13.82;3.70;;;;;;;8.15;56.37;102776.19;4911886;29;20040;-71
2022/01/30 06:19:57;;;;;;;11.50;2.10;;;;;;;8.10;56.35;102780.78;4913546;29;20437;-70
2022/01/30 06:22:42;;;;;;;14.15;3.28;;;;;;;8.08;56.43;102773.75;4913676;29;20078;-69
2022/01/30 06:25:49;;;;;;;11.88;2.33;;;;;;;8.06;56.40;102776.47;4909338;29;20051;-69
2022/01/30 06:28:16;;;;;;;11.48;2.90;;;;;;;8.05;56.60;102774.72;4912806;28;20056;-70
2022/01/30 06:31:01;;;;;;;14.00;3.30;;;;;;;8.06;56.70;102779.13;4913355;29;20063;-70
2022/01/30 06:33:48;;;;;;;9.90;2.65;;;;;;;8.08;56.76;102779.09;4913553;29;20059;-70
2022/01/30 06:36:33;;;;;;;14.40;3.38;;;;;;;8.08;56.58;102790.66;4912486;29;20102;-70
2022/01/30 06:39:20;;;;;;;13.98;3.03;;;;;;;8.08;56.66;102796.03;4912525;29;20143;-70
2022/01/30 06:42:09;;;;;;;12.95;2.78;;;;;;;8.09;56.70;102802.25;4927567;29;20059;-70
2022/01/30 06:45:02;;;;;;;17.50;2.60;;;;;;;8.09;56.72;102813.84;4919398;29;20114;-70
2022/01/30 06:47:58;;;;;;;;;;;;;;;8.09;56.78;102799.56;4913742;29;20067;-70
2022/01/30 06:50:43;;;;;;;15.07;2.63;;;;;;;8.15;56.56;102799.41;4913258;29;19934;-69
2022/01/30 06:53:32;;;;;;;8.30;2.70;;;;;;;8.13;56.38;102795.88;4913204;29;20062;-70
2022/01/30 06:56:17;;;;;;;15.63;2.95;;;;;;;8.10;56.66;102810.22;4912843;29;20079;-69
2022/01/30 06:59:02;;;;;;;13.02;2.80;;;;;;;8.08;57.04;102816.56;4912903;29;20055;-70
2022/01/30 07:01:49;;;;;;;15.07;2.97;;;;;;;8.06;56.82;102816.59;4913338;29;20561;-70
2022/01/30 07:04:34;;;;;;;12.82;3.08;;;;;;;8.04;56.83;102821.13;4913095;29;20059;-70
2022/01/30 07:07:30;;;;;;;28.30;5.50;;;;;;;8.06;56.78;102832.66;4943524;28;20063;-70
2022/01/30 07:09:57;;;;;;;17.45;3.28;;;;;;;8.09;56.88;102843.28;4926814;29;20510;-70
2022/01/30 07:12:23;;;;;;;16.88;4.13;;;;;;;8.14;56.87;102843.13;4911250;29;20051;-70
2022/01/30 07:14:50;;;;;;;16.55;3.67;;;;;;;8.17;56.94;102848.41;4911726;28;20075;-70
2022/01/30 07:17:17;;;;;;;23.38;3.15;;;;;;;8.20;56.98;102848.34;4927143;29;20055;-70
2022/01/30 07:19:43;;;;;;;13.82;3.25;;;;;;;8.22;56.88;102850.06;4912481;29;20489;-70
2022/01/30 07:22:10;;;;;;;18.75;2.72;;;;;;;8.23;56.82;102848.25;4912526;29;20072;-70
2022/01/30 07:24:40;;;;;;;13.63;2.58;;;;;;;8.24;56.80;102852.69;4912617;29;20067;-70
2022/01/30 07:27:06;;;;;;;17.67;2.92;;;;;;;8.24;56.76;102850.00;4912259;29;20090;-70
2022/01/30 07:29:33;;;;;;;15.88;4.03;;;;;;;8.23;56.86;102858.97;4911141;29;20127;-70
2022/01/30 07:31:59;;;;;;;14.60;3.30;;;;;;;8.22;56.42;102860.75;4911871;29;20094;-70
2022/01/30 07:34:27;;;;;;;13.93;3.03;;;;;;;8.23;56.74;102861.63;4911525;29;20387;-70
2022/01/30 07:36:57;;;;;;;17.48;3.33;;;;;;;8.23;56.66;102869.66;4911493;29;20071;-69
2022/01/30 07:39:28;;;;;;;20.17;3.58;;;;;;;8.21;56.60;102871.50;4911419;29;20076;-69
2022/01/30 07:41:55;;;;;;;10.00;2.92;;;;;;;8.20;56.60;102875.09;4926664;28;20135;-69
2022/01/30 07:44:23;;;;;;;14.82;3.55;;;;;;;8.16;56.43;102873.41;4926945;29;20110;-69
2022/01/30 07:46:49;;;;;;;12.23;3.00;;;;;;;8.13;56.53;102871.69;4914091;28;20050;-68
2022/01/30 07:49:16;;;;;;;13.38;2.88;;;;;;;8.10;56.47;102885.16;4911703;28;20445;-69
2022/01/30 07:51:43;;;;;;;14.93;2.40;;;;;;;8.10;56.42;102878.94;4912117;29;20119;-69
2022/01/30 07:54:11;;;;;;;15.85;2.50;;;;;;;8.09;56.34;102886.09;4912287;29;20345;-68
2022/01/30 07:56:39;;;;;;;7.93;2.88;;;;;;;8.07;56.39;102881.69;4942062;28;20110;-68
2022/01/30 07:59:08;;;;;;;16.23;2.75;;;;;;;8.03;56.31;102885.38;4911941;29;20102;-68
2022/01/30 08:01:35;;;;;;;19.02;3.38;;;;;;;8.02;56.43;102887.19;4912076;29;20040;-69
2022/01/30 08:04:07;;;;;;;9.68;2.92;;;;;;;8.01;56.60;102895.25;4910903;29;20048;-69
2022/01/30 08:06:34;;;;;;;22.10;3.63;;;;;;;8.00;56.58;102894.38;4926369;29;20529;-69
2022/01/30 08:09:02;;;;;;;15.60;3.47;;;;;;;8.02;56.83;102900.56;4911830;29;20490;-69
2022/01/30 08:11:28;;;;;;;13.00;3.63;;;;;;;8.05;56.83;102897.78;4911965;29;20327;-69
2022/01/30 08:13:59;;;;;;;15.88;3.78;;;;;;;8.09;56.93;102907.50;4911873;29;20036;-68
2022/01/30 08:16:27;;;;;;;18.85;3.38;;;;;;;8.13;56.99;102909.16;4911892;29;20048;-69
2022/01/30 08:18:54;;;;;;;13.30;3.17;;;;;;;8.17;56.91;102913.50;4911715;29;20129;-68
2022/01/30 08:21:20;;;;;;;14.77;3.42;;;;;;;8.22;57.04;102905.38;4911411;29;20127;-69
2022/01/30 08:23:48;;;;;;;17.50;3.38;;;;;;;8.28;57.16;102905.22;4911843;29;20471;-69
2022/01/30 08:26:14;;;;;;;18.95;3.78;;;;;;;8.34;57.16;102906.88;4911802;29;20060;-69
2022/01/30 08:28:41;;;;;;;14.95;4.03;;;;;;;8.39;57.28;102897.78;4911665;29;20552;-69
2022/01/30 08:31:07;;;;;;;21.27;3.67;;;;;;;8.45;57.30;102900.28;4911688;29;20517;-69
2022/01/30 08:33:36;;;;;;;17.40;4.40;;;;;;;8.52;57.32;102904.53;4911816;29;20045;-69
2022/01/30 08:36:02;;;;;;;14.52;3.70;;;;;;;8.60;57.24;102901.63;4911570;29;20406;-69
2022/01/30 08:38:29;;;;;;;21.60;3.92;;;;;;;8.66;57.25;102906.78;4911716;29;20455;-69
2022/01/30 08:40:59;;;;;;;18.52;3.65;;;;;;;8.74;57.57;102914.59;4926149;29;20067;-69
2022/01/30 08:43:30;;;;;;;25.60;4.75;;;;;;;8.81;57.31;102906.31;4911468;29;20067;-68
2022/01/30 08:45:59;;;;;;;18.15;4.07;;;;;;;8.87;57.23;102911.47;4912786;28;20103;-68
2022/01/30 08:48:27;;;;;;;14.57;3.78;;;;;;;8.94;57.24;102911.31;4911150;29;20455;-68
2022/01/30 08:50:55;;;;;;;17.83;3.80;;;;;;;9.01;57.11;102920.94;4911811;28;20036;-69
2022/01/30 08:53:24;;;;;;;16.65;3.75;;;;;;;9.07;57.10;102918.94;4911384;28;20060;-68
2022/01/30 08:55:50;;;;;;;19.00;4.15;;;;;;;9.13;57.20;102920.53;4913622;29;20498;-69
2022/01/30 08:58:17;;;;;;;21.33;4.25;;;;;;;9.18;57.26;102921.25;4911839;28;20124;-69
2022/01/30 09:00:44;;;;;;;19.23;4.38;;;;;;;9.23;56.99;102928.22;4913927;29;20036;-69
2022/01/30 09:03:14;;;;;;;20.80;4.70;;;;;;;9.28;57.12;102924.53;4913796;29;20180;-69
2022/01/30 09:05:41;;;;;;;24.30;4.95;;;;;;;9.32;56.93;102929.75;4913643;28;20094;-74
2022/01/30 09:08:08;;;;;;;21.90;4.53;;;;;;;9.37;56.71;102933.16;4911471;29;20106;-69
2022/01/30 09:10:37;;;;;;;15.75;4.28;;;;;;;9.40;56.83;102938.41;4914198;28;20036;-69
2022/01/30 09:13:06;;;;;;;21.25;4.65;;;;;;;9.45;56.80;102944.50;4914655;29;20418;-69
2022/01/30 09:15:38;;;;;;;24.38;4.60;;;;;;;9.49;56.68;102942.59;4914524;29;20390;-68
2022/01/30 09:18:08;;;;;;;24.63;4.85;;;;;;;9.51;56.56;102943.41;4914467;29;20499;-69
2022/01/30 09:20:37;;;;;;;19.50;4.55;;;;;;;9.57;56.63;102948.56;4914419;29;20052;-68
2022/01/30 09:23:10;;;;;;;20.05;4.53;;;;;;;9.65;56.78;102940.28;4918711;28;20040;-70
2022/01/30 09:25:42;;;;;;;19.75;4.35;;;;;;;9.79;56.79;102946.06;4913808;28;20062;-68
2022/01/30 09:28:09;;;;;;;18.30;3.55;;;;;;;9.90;56.75;102946.56;4913746;29;20509;-69
2022/01/30 09:30:36;;;;;;;21.00;4.75;;;;;;;10.04;56.68;102946.97;4913846;29;20383;-69
2022/01/30 09:33:07;;;;;;;24.58;4.72;;;;;;;10.15;56.68;102960.88;4913527;29;20048;-69
2022/01/30 09:35:33;;;;;;;17.20;4.22;;;;;;;10.26;56.48;102960.53;4906027;29;20052;-69
2022/01/30 09:38:01;;;;;;;15.43;4.50;;;;;;;10.36;56.42;102955.72;4913262;29;20074;-69
2022/01/30 09:40:28;;;;;;;22.15;4.70;;;;;;;10.45;56.41;102963.47;4904608;29;20063;-72
2022/01/30 09:42:56;;;;;;;19.58;4.80;;;;;;;10.56;56.26;102958.56;4895142;29;20095;-66
2022/01/30 09:45:25;;;;;;;22.23;4.65;;;;;;;10.69;56.03;102956.28;4895258;29;20045;-67
2022/01/30 09:47:52;;;;;;;21.30;4.72;;;;;;;10.81;55.97;102959.38;4899904;29;20067;-67
2022/01/30 09:50:21;;;;;;;20.33;4.38;;;;;;;10.92;55.96;102968.84;4913888;29;20056;-69
2022/01/30 09:52:48;;;;;;;27.30;6.22;;;;;;;11.04;55.93;102969.25;4913657;29;20055;-69
2022/01/30 09:55:16;;;;;;;22.25;4.22;;;;;;;11.11;55.49;102972.56;4914095;29;20137;-69
2022/01/30 09:57:43;;;;;;;27.17;5.07;;;;;;;11.16;55.23;102975.97;4912690;29;20079;-69
2022/01/30 10:00:11;;;;;;;20.95;5.07;;;;;;;11.16;55.08;102967.03;4913715;28;20056;-73
2022/01/30 10:02:43;;;;;;;21.00;5.50;;;;;;;11.18;54.97;102975.91;4914071;28;20052;-72
2022/01/30 10:05:11;;;;;;;22.20;5.53;;;;;;;11.19;54.81;102965.09;4913426;29;20469;-73
2022/01/30 10:07:42;;;;;;;22.00;5.32;;;;;;;11.21;54.78;102971.28;4913169;29;20124;-72
2022/01/30 10:10:12;;;;;;;20.88;4.82;;;;;;;11.22;54.75;102978.44;4913565;29;20525;-72
2022/01/30 10:13:16;;;;;;;23.83;5.72;;;;;;;11.22;54.38;102975.75;4913489;29;20098;-67
2022/01/30 10:16:03;;;;;;;23.67;5.07;;;;;;;11.23;54.41;102977.50;4913490;29;20052;-67
2022/01/30 10:18:32;;;;;;;22.55;5.45;;;;;;;11.21;54.41;102979.38;4913013;29;20044;-67
2022/01/30 10:21:00;;;;;;;27.17;6.07;;;;;;;11.19;54.22;102991.13;4913629;29;20453;-66
2022/01/30 10:23:34;;;;;;;23.60;5.78;;;;;;;11.17;54.03;102995.69;4913378;29;20036;-66
2022/01/30 10:26:07;;;;;;;22.20;5.03;;;;;;;11.18;54.08;102998.31;4913341;29;20553;-67
2022/01/30 10:28:36;;;;;;;28.98;5.72;;;;;;;11.21;53.97;102998.19;4912879;29;20126;-67
2022/01/30 10:31:05;;;;;;;26.17;5.40;;;;;;;11.27;54.10;103002.44;4913247;29;20119;-66
2022/01/30 10:33:40;;;;;;;30.88;5.45;;;;;;;11.35;53.96;102992.25;4911996;29;20553;-66
2022/01/30 10:36:09;;;;;;;23.98;4.68;;;;;;;11.45;54.12;102991.81;4913034;29;20506;-67
2022/01/30 10:38:39;;;;;;;22.55;5.20;;;;;;;11.57;54.21;102995.84;4911554;29;20441;-66
2022/01/30 10:44:00;;;;;;;26.63;5.30;;;;;;;11.83;53.93;102981.31;4913429;29;20076;-67
2022/01/30 10:46:30;;;;;;;28.23;5.65;;;;;;;11.92;53.64;102975.56;4912924;29;20135;-67
2022/01/30 10:48:58;;;;;;;24.33;5.40;;;;;;;12.00;53.79;102981.50;4912556;29;20048;-67
2022/01/30 10:51:28;;;;;;;17.27;5.13;;;;;;;12.08;53.48;102978.47;4912763;29;20106;-67
2022/01/30 10:54:06;;;;;;;20.70;4.85;;;;;;;12.18;52.96;102978.94;4911980;29;20056;-66
2022/01/30 10:56:36;;;;;;;22.02;5.07;;;;;;;12.28;53.08;102978.47;4912749;29;20052;-67
2022/01/30 10:59:12;;;;;;;21.70;4.50;;;;;;;12.37;52.81;102975.38;4912530;29;20055;-67
2022/01/30 11:01:50;;;;;;;23.38;5.28;;;;;;;12.48;52.92;102976.72;4912653;29;20098;-66
2022/01/30 11:04:26;;;;;;;23.80;5.53;;;;;;;12.52;52.25;102976.50;4894139;29;20388;-67
2022/01/30 11:06:55;;;;;;;24.75;5.40;;;;;;;12.55;52.21;102976.34;4893973;29;20048;-66
2022/01/30 11:09:26;;;;;;;21.95;5.63;;;;;;;12.55;52.23;102970.09;4893279;29;20068;-67
2022/01/30 11:12:01;;;;;;;24.65;5.15;;;;;;;12.54;51.82;102977.31;4893689;29;20164;-67
2022/01/30 11:14:36;;;;;;;;;;;;;;;12.50;51.71;102975.69;4894481;29;20142;-67
2022/01/30 11:17:05;;;;;;;19.08;5.20;;;;;;;12.54;51.70;102962.94;4892900;29;19923;-67
2022/01/30 11:19:35;;;;;;;24.90;5.50;;;;;;;12.49;51.45;102955.06;4893340;29;20056;-67
2022/01/30 11:22:05;;;;;;;17.80;4.68;;;;;;;12.47;51.22;102958.78;4909260;29;20048;-67
2022/01/30 11:24:46;;;;;;;25.50;4.87;;;;;;;12.46;51.02;102960.59;4893706;29;20107;-67
2022/01/30 11:27:20;;;;;;;22.58;5.32;;;;;;;12.50;51.05;102954.13;4893688;29;20071;-66
2022/01/30 11:29:51;;;;;;;19.52;4.90;;;;;;;12.50;50.92;102956.81;4891828;29;20056;-66
2022/01/30 11:32:21;;;;;;;21.02;5.40;;;;;;;12.55;50.84;102953.91;4909615;29;20055;-67
2022/01/30 11:34:56;;;;;;;22.17;5.55;;;;;;;12.61;51.22;102949.13;4911050;29;20044;-67
2022/01/30 11:37:26;;;;;;;29.80;4.50;;;;;;;12.72;50.95;102937.88;4911874;29;20063;-67
2022/01/30 11:39:53;;;;;;;24.23;4.78;;;;;;;12.78;50.93;102942.97;4926497;29;20078;-67
2022/01/30 11:42:27;;;;;;;20.50;4.97;;;;;;;12.81;50.64;102940.13;4912491;29;20505;-68
2022/01/30 11:45:32;;;;;;;22.25;5.18;;;;;;;12.83;50.28;102938.25;4927181;29;20512;-68
2022/01/30 11:48:13;;;;;;;25.33;5.50;;;;;;;12.92;50.47;102935.09;4924258;28;20056;-68
2022/01/30 11:50:40;;;;;;;29.45;5.70;;;;;;;13.02;50.61;102931.00;4914351;28;20487;-68
2022/01/30 11:53:25;;;;;;;25.67;5.03;;;;;;;13.16;50.43;102927.66;4896913;29;20032;-69
2022/01/30 11:56:00;;;;;;;21.23;4.93;;;;;;;13.33;50.39;102930.41;4912003;29;20044;-69
2022/01/30 11:58:38;;;;;;;;;;;;;;;13.48;50.32;102938.75;4912550;29;20044;-68
2022/01/30 12:01:13;;;;;;;28.23;6.30;;;;;;;13.61;49.92;102932.63;4911912;29;19923;-68
2022/01/30 12:03:59;;;;;;;23.33;5.22;;;;;;;13.66;49.50;102930.59;4912178;29;20052;-69
2022/01/30 12:06:30;;;;;;;23.33;5.28;;;;;;;13.70;49.44;102927.72;4926527;29;20060;-69
2022/01/30 12:09:17;;;;;;;27.70;6.28;;;;;;;13.71;49.21;102922.25;4911827;29;20055;-68
2022/01/30 12:11:50;;;;;;;24.13;4.80;;;;;;;13.71;49.29;102924.94;4910663;29;20051;-69
2022/01/30 12:14:21;;;;;;;20.35;4.97;;;;;;;13.70;49.26;102925.91;4912055;29;20048;-69
2022/01/30 12:16:51;;;;;;;25.88;5.00;;;;;;;13.68;49.10;102922.41;4911637;29;20060;-69
2022/01/30 12:19:30;;;;;;;19.55;4.65;;;;;;;13.64;49.06;102918.13;4909577;29;20055;-68
2022/01/30 12:22:28;;;;;;;20.35;5.55;;;;;;;13.60;49.11;102914.69;4911742;29;20048;-69
2022/01/30 12:25:19;;;;;;;18.17;5.15;;;;;;;13.58;48.74;102922.00;4911763;29;20042;-69
2022/01/30 12:27:51;;;;;;;26.33;4.85;;;;;;;13.56;48.72;102917.63;4911887;28;20037;-69
2022/01/30 12:30:37;;;;;;;19.45;4.78;;;;;;;13.55;48.62;102905.97;4929385;29;20171;-68
2022/01/30 12:33:34;;;;;;;19.92;4.57;;;;;;;13.55;48.52;102911.34;4914909;29;20135;-69
2022/01/30 12:36:04;;;;;;;16.98;4.70;;;;;;;13.62;48.74;102901.13;4910730;29;20060;-69
2022/01/30 12:38:33;;;;;;;24.20;4.70;;;;;;;13.67;48.51;102896.34;4914794;29;20040;-68
2022/01/30 12:41:12;;;;;;;18.85;4.43;;;;;;;13.74;48.53;102883.41;4914764;29;20135;-68
2022/01/30 12:43:41;;;;;;;17.67;4.38;;;;;;;13.81;48.34;102895.63;4914344;29;20040;-69
2022/01/30 12:46:10;;;;;;;15.63;4.05;;;;;;;13.85;48.00;102883.72;4914767;29;20048;-68
2022/01/30 12:48:37;;;;;;;23.10;4.63;;;;;;;13.85;47.59;102883.72;4914633;29;20441;-69
2022/01/30 12:51:12;;;;;;;20.77;4.75;;;;;;;13.81;47.64;102872.22;4914339;29;20125;-68